LGRD weather

Maritsa Airport
Rodes Island, Dodecanese, Greece

Public forecast

Using degrees Celsius for public forecast. Weather courtesy of forecast.io.

METAR (pilot weather report)

Closest report is Diagoras Airport, 1.7 nm (3.2 km) NW. Retrieved 2019/04/24 10:20 UTC (2 minutes ago):

LGRP 241020Z 15005KT 9999 FEW020 23/06 Q1026 NOSIG

TAF (pilot weather forecast)

Closest forecast is Diagoras Airport, 1.7 nm (3.2 km) NW. Retrieved 2019/04/24 06:12 UTC (4 hours ago):

TAF LGRP 240500Z 2406/2506 12010KT 9999 FEW010 BECMG 2422/2424 26010KT FEW020 BKN050